Konya — 9HA3156 — position and weather

sailwx.info

Track history (hours):
 
Tides and Currents Weather Stations Pressure Air Temp Water Temp Dewpoint Dewpoint Depression Visibility Wind Speed Wind Dir Waves Ship Positions

Konya

Last reported at 2018-Mar-18 03:20 UTC. Time now 2018-Apr-19 17:36 UTC.
Position N 28°54' W 094°17'.
Warning: this ship's position is 32 days out of date.

Length 200 m; draft 12 m.

Type: Cargo ship. MMSI: 229218000.

Date/timePositionNaut miles runAvg speedWind from/ knotsBaromVisibWave heightAir tempDewpointWater temp
2018-Mar-18 03:20N 28°54' W 094°17'411.2
2018-Mar-18 03:00N 28°55' W 094°21'5 9.6
2018-Mar-18 02:29N 28°59' W 094°25'611.5
2018-Mar-18 02:00N 29°04' W 094°26'511.1
2018-Mar-18 01:31N 29°09' W 094°27'511.0
2018-Mar-18 01:01N 29°13' W 094°32'510.5
2018-Mar-18 00:31N 29°16' W 094°37'4 7.9
2018-Mar-18 00:00N 29°19' W 094°40'5 9.5
2018-Mar-17 23:30N 29°21' W 094°45'5 9.2
2018-Mar-17 23:00N 29°22' W 094°50'3 5.9
2018-Mar-17 22:27N 29°22' W 094°53'0 0.6
2018-Mar-17 21:57N 29°22' W 094°54'0 0.0
2018-Mar-17 21:30N 29°22' W 094°54'0 0.0
2018-Mar-17 20:57N 29°22' W 094°54'0 0.0
2018-Mar-17 20:30N 29°22' W 094°54'0 0.0
2018-Mar-17 19:57N 29°22' W 094°54'0 0.0
2018-Mar-17 19:30N 29°22' W 094°54'0 0.0
2018-Mar-17 19:00N 29°22' W 094°54'0 0.0
2018-Mar-17 14:21N 29°22' W 094°54'0 0.0
2018-Mar-17 13:57N 29°22' W 094°54'0 0.0
2018-Mar-17 13:27N 29°22' W 094°54'0 0.0
2018-Mar-17 08:15N 29°22' W 094°54'0 0.0
2018-Mar-17 07:57N 29°22' W 094°54'0 0.0
2018-Mar-15 19:57N 29°22' W 094°54'0 0.0
2018-Mar-15 18:33N 29°22' W 094°54'0 0.0
2018-Mar-15 18:24N 29°22' W 094°54'0 0.0
2018-Mar-15 17:57N 29°22' W 094°54'0 0.0
2018-Mar-15 17:30N 29°22' W 094°54'0 0.0
2018-Mar-15 17:00N 29°22' W 094°54'0 0.0
2018-Mar-15 16:30N 29°22' W 094°54'0 0.0
2018-Mar-15 15:57N 29°22' W 094°54'0 0.0
2018-Mar-15 15:30N 29°22' W 094°54'0 0.0
2018-Mar-15 14:58N 29°22' W 094°54'1 1.1
2018-Mar-15 14:30N 29°22' W 094°53'2 3.0
2018-Mar-15 13:59N 29°23' W 094°52'5 9.3
2018-Mar-15 13:29N 29°21' W 094°47'611.0
2018-Mar-15 12:59N 29°20' W 094°40'611.9
2018-Mar-15 12:28N 29°17' W 094°34'712.5
2018-Mar-15 11:56N 29°13' W 094°28'512.0
2018-Mar-15 11:30N 29°09' W 094°24'611.1
2018-Mar-15 10:59N 29°03' W 094°25'711.8
2018-Mar-15 10:25N 28°56' W 094°25'  
Track history (hours):
 
Tides and Currents Weather Stations Pressure Air Temp Water Temp Dewpoint Dewpoint Depression Visibility Wind Speed Wind Dir Waves Ship Positions

Konya

Last reported at 2018-Mar-18 03:20 UTC. Time now 2018-Apr-19 17:36 UTC.
Position N 28°54' W 094°17'.
Warning: this ship's position is 32 days out of date.

Length 200 m; draft 12 m.

Type: Cargo ship. MMSI: 229218000.

Date/timePositionNaut miles runAvg speedWind from/ knotsBaromVisibWave heightAir tempDewpointWater temp
2018-Mar-18 03:20N 28°54' W 094°17'411.2
2018-Mar-18 03:00N 28°55' W 094°21'5 9.6
2018-Mar-18 02:29N 28°59' W 094°25'611.5
2018-Mar-18 02:00N 29°04' W 094°26'511.1
2018-Mar-18 01:31N 29°09' W 094°27'511.0
2018-Mar-18 01:01N 29°13' W 094°32'510.5
2018-Mar-18 00:31N 29°16' W 094°37'4 7.9
2018-Mar-18 00:00N 29°19' W 094°40'5 9.5
2018-Mar-17 23:30N 29°21' W 094°45'5 9.2
2018-Mar-17 23:00N 29°22' W 094°50'3 5.9
2018-Mar-17 22:27N 29°22' W 094°53'0 0.6
2018-Mar-17 21:57N 29°22' W 094°54'0 0.0
2018-Mar-17 21:30N 29°22' W 094°54'0 0.0
2018-Mar-17 20:57N 29°22' W 094°54'0 0.0
2018-Mar-17 20:30N 29°22' W 094°54'0 0.0
2018-Mar-17 19:57N 29°22' W 094°54'0 0.0
2018-Mar-17 19:30N 29°22' W 094°54'0 0.0
2018-Mar-17 19:00N 29°22' W 094°54'0 0.0
2018-Mar-17 14:21N 29°22' W 094°54'0 0.0
2018-Mar-17 13:57N 29°22' W 094°54'0 0.0
2018-Mar-17 13:27N 29°22' W 094°54'0 0.0
2018-Mar-17 08:15N 29°22' W 094°54'0 0.0
2018-Mar-17 07:57N 29°22' W 094°54'0 0.0
2018-Mar-15 19:57N 29°22' W 094°54'0 0.0
2018-Mar-15 18:33N 29°22' W 094°54'0 0.0
2018-Mar-15 18:24N 29°22' W 094°54'0 0.0
2018-Mar-15 17:57N 29°22' W 094°54'0 0.0
2018-Mar-15 17:30N 29°22' W 094°54'0 0.0
2018-Mar-15 17:00N 29°22' W 094°54'0 0.0
2018-Mar-15 16:30N 29°22' W 094°54'0 0.0
2018-Mar-15 15:57N 29°22' W 094°54'0 0.0
2018-Mar-15 15:30N 29°22' W 094°54'0 0.0
2018-Mar-15 14:58N 29°22' W 094°54'1 1.1
2018-Mar-15 14:30N 29°22' W 094°53'2 3.0
2018-Mar-15 13:59N 29°23' W 094°52'5 9.3
2018-Mar-15 13:29N 29°21' W 094°47'611.0
2018-Mar-15 12:59N 29°20' W 094°40'611.9
2018-Mar-15 12:28N 29°17' W 094°34'712.5
2018-Mar-15 11:56N 29°13' W 094°28'512.0
2018-Mar-15 11:30N 29°09' W 094°24'611.1
2018-Mar-15 10:59N 29°03' W 094°25'711.8
2018-Mar-15 10:25N 28°56' W 094°25'  

Dump ship's entire track history